createdAt,value
2023-03-14T00:02:16.158Z,7.94
2023-03-14T00:04:49.090Z,7.97
2023-03-14T00:07:42.527Z,8.03
2023-03-14T00:10:18.601Z,8.08
2023-03-14T00:12:51.351Z,8.14
2023-03-14T00:15:23.971Z,8.21
2023-03-14T00:17:58.595Z,8.28
2023-03-14T00:20:31.411Z,8.34
2023-03-14T00:23:04.056Z,8.37
2023-03-14T00:25:36.966Z,8.39
2023-03-14T00:28:09.728Z,8.40
2023-03-14T00:30:47.602Z,8.41
2023-03-14T00:33:20.402Z,8.41
2023-03-14T00:35:58.847Z,8.41
2023-03-14T00:38:32.192Z,8.41
2023-03-14T00:41:09.898Z,8.41
2023-03-14T00:43:46.087Z,8.38
2023-03-14T00:46:20.911Z,8.37
2023-03-14T00:48:53.606Z,8.40
2023-03-14T00:51:29.815Z,8.41
2023-03-14T00:54:03.321Z,8.41
2023-03-14T00:56:37.593Z,8.41
2023-03-14T00:59:10.435Z,8.43
2023-03-14T01:01:44.369Z,8.44
2023-03-14T01:04:18.874Z,8.43
2023-03-14T01:06:51.895Z,8.44
2023-03-14T01:09:27.552Z,8.44
2023-03-14T01:12:00.390Z,8.45
2023-03-14T01:14:37.215Z,8.47
2023-03-14T01:17:10.207Z,8.47
2023-03-14T01:19:45.563Z,8.49
2023-03-14T01:22:18.539Z,8.52
2023-03-14T01:24:54.427Z,8.53
2023-03-14T01:27:27.271Z,8.55
2023-03-14T01:30:00.131Z,8.61
2023-03-14T01:32:35.170Z,8.63
2023-03-14T01:35:11.461Z,8.67
2023-03-14T01:37:44.745Z,8.71
2023-03-14T01:40:21.948Z,8.76
2023-03-14T01:43:08.503Z,8.81
2023-03-14T01:46:18.305Z,8.84
2023-03-14T01:48:58.087Z,8.87
2023-03-14T01:51:37.716Z,8.90
2023-03-14T01:54:16.271Z,8.92
2023-03-14T01:56:58.236Z,8.95
2023-03-14T01:59:35.184Z,8.97
2023-03-14T02:02:09.677Z,9.00
2023-03-14T02:04:43.613Z,9.00
2023-03-14T02:07:26.335Z,9.01
2023-03-14T02:10:13.217Z,9.01
2023-03-14T02:12:47.183Z,9.00
2023-03-14T02:15:40.075Z,9.00
2023-03-14T02:18:21.377Z,8.97
2023-03-14T02:21:22.189Z,8.92
2023-03-14T02:24:07.499Z,8.89
2023-03-14T02:27:04.786Z,8.87
2023-03-14T02:29:41.639Z,8.88
2023-03-14T02:32:19.527Z,8.84
2023-03-14T02:34:56.820Z,8.81
2023-03-14T02:37:35.659Z,8.77
2023-03-14T02:40:11.241Z,8.71
2023-03-14T02:42:44.927Z,8.65
2023-03-14T02:45:44.547Z,8.61
2023-03-14T02:48:21.490Z,8.56
2023-03-14T02:50:57.866Z,8.54
2023-03-14T02:53:33.623Z,8.51
2023-03-14T02:56:12.052Z,8.47
2023-03-14T02:58:48.573Z,8.43
2023-03-14T03:01:36.060Z,8.39
2023-03-14T03:04:09.291Z,8.38
2023-03-14T03:06:43.624Z,8.38
2023-03-14T03:09:16.606Z,8.38
2023-03-14T03:12:00.694Z,8.37
2023-03-14T03:14:34.432Z,8.36
2023-03-14T03:17:16.312Z,8.35
2023-03-14T03:19:52.179Z,8.31
2023-03-14T03:22:25.253Z,8.29
2023-03-14T03:24:59.047Z,8.30
2023-03-14T03:27:33.922Z,8.32
2023-03-14T03:30:10.937Z,8.33
2023-03-14T03:32:44.189Z,8.34
2023-03-14T03:35:20.479Z,8.35
2023-03-14T03:37:53.253Z,8.34
2023-03-14T03:40:26.256Z,8.32
2023-03-14T03:42:59.403Z,8.29
2023-03-14T03:45:32.692Z,8.29
2023-03-14T03:48:06.989Z,8.26
2023-03-14T03:50:39.851Z,8.24
2023-03-14T03:53:26.823Z,8.23
2023-03-14T03:56:03.849Z,8.22
2023-03-14T03:58:38.589Z,8.23
2023-03-14T04:01:21.434Z,8.23
2023-03-14T04:03:57.994Z,8.22
2023-03-14T04:06:51.408Z,8.21
2023-03-14T04:09:44.720Z,8.20
2023-03-14T04:12:35.985Z,8.18
2023-03-14T04:15:31.736Z,8.15
2023-03-14T04:18:25.985Z,8.14
2023-03-14T04:21:19.522Z,8.15
2023-03-14T04:24:12.665Z,8.14
2023-03-14T04:27:05.693Z,8.14
2023-03-14T04:29:58.734Z,8.15
2023-03-14T04:32:51.801Z,8.16
2023-03-14T04:35:28.597Z,8.17
2023-03-14T04:38:21.550Z,8.19
2023-03-14T04:41:14.869Z,8.23
2023-03-14T04:44:01.463Z,8.25
2023-03-14T04:46:45.595Z,8.28
2023-03-14T04:49:30.068Z,8.30
2023-03-14T04:52:23.145Z,8.32
2023-03-14T04:55:16.109Z,8.34
2023-03-14T04:58:00.196Z,8.36
2023-03-14T05:00:46.721Z,8.40
2023-03-14T05:03:43.389Z,8.40
2023-03-14T05:06:40.874Z,8.42
2023-03-14T05:09:32.362Z,8.43
2023-03-14T05:12:28.299Z,8.44
2023-03-14T05:15:24.195Z,8.44
2023-03-14T05:18:17.622Z,8.44
2023-03-14T05:21:11.048Z,8.44
2023-03-14T05:24:10.438Z,8.44
2023-03-14T05:27:01.580Z,8.43
2023-03-14T05:30:09.640Z,8.43
2023-03-14T05:33:02.973Z,8.44
2023-03-14T05:36:07.377Z,8.48
2023-03-14T05:38:58.738Z,8.50
2023-03-14T05:42:03.936Z,8.53
2023-03-14T05:44:55.407Z,8.58
2023-03-14T05:47:54.003Z,8.63
2023-03-14T05:51:05.794Z,8.70
2023-03-14T05:54:01.814Z,8.80
2023-03-14T05:57:00.587Z,8.89
2023-03-14T05:59:51.276Z,8.97
2023-03-14T06:02:42.592Z,9.06
2023-03-14T06:05:34.383Z,9.17
2023-03-14T06:08:13.422Z,9.27
2023-03-14T06:11:15.221Z,9.40
2023-03-14T06:13:50.668Z,9.49
2023-03-14T06:16:42.866Z,9.55
2023-03-14T06:19:29.354Z,9.61
2023-03-14T06:22:22.327Z,9.67
2023-03-14T06:25:15.057Z,9.74
2023-03-14T06:28:01.545Z,9.84
2023-03-14T06:30:46.403Z,9.95
2023-03-14T06:33:22.487Z,10.08
2023-03-14T06:35:55.638Z,10.20
2023-03-14T06:38:28.866Z,10.37
2023-03-14T06:41:21.893Z,10.57
2023-03-14T06:43:56.703Z,10.75
2023-03-14T06:46:33.712Z,10.95
2023-03-14T06:49:07.517Z,11.14
2023-03-14T06:51:40.680Z,11.35
2023-03-14T06:54:17.022Z,11.56
2023-03-14T06:56:55.775Z,11.74
2023-03-14T06:59:31.435Z,11.89
2023-03-14T07:02:04.598Z,12.02
2023-03-14T07:04:37.717Z,12.13
2023-03-14T07:07:10.819Z,12.27
2023-03-14T07:09:45.023Z,12.41
2023-03-14T07:12:27.081Z,12.48
2023-03-14T07:15:08.758Z,12.55
2023-03-14T07:17:51.551Z,12.62
2023-03-14T07:20:28.051Z,12.68
2023-03-14T07:23:04.002Z,12.66
2023-03-14T07:25:51.850Z,12.62
2023-03-14T07:28:29.376Z,12.62
2023-03-14T07:31:06.831Z,12.63
2023-03-14T07:33:39.886Z,12.69
2023-03-14T07:36:16.314Z,12.74
2023-03-14T07:38:51.326Z,12.78
2023-03-14T07:41:46.498Z,12.87
2023-03-14T07:44:42.420Z,12.98
2023-03-14T07:47:15.321Z,13.08
2023-03-14T07:49:48.278Z,13.19
2023-03-14T07:52:21.308Z,13.31
2023-03-14T07:54:56.617Z,13.41
2023-03-14T07:57:29.277Z,13.52
2023-03-14T08:00:06.409Z,13.59
2023-03-14T08:02:47.520Z,13.66
2023-03-14T08:05:21.230Z,13.73
2023-03-14T08:07:53.920Z,13.70
2023-03-14T08:10:29.310Z,13.72
2023-03-14T08:13:05.403Z,13.75
2023-03-14T08:15:39.024Z,13.84
2023-03-14T08:18:22.880Z,13.81
2023-03-14T08:20:59.202Z,13.72
2023-03-14T08:23:34.791Z,13.67
2023-03-14T08:26:08.947Z,13.68
2023-03-14T08:28:44.760Z,13.73
2023-03-14T08:31:17.409Z,13.81
2023-03-14T08:33:53.249Z,13.98
2023-03-14T08:36:27.681Z,14.21
2023-03-14T08:39:05.079Z,14.40
2023-03-14T08:41:41.570Z,14.52
2023-03-14T08:44:16.343Z,14.58
2023-03-14T08:46:53.290Z,14.60
2023-03-14T08:49:26.035Z,14.69
2023-03-14T08:51:59.684Z,14.84
2023-03-14T08:54:32.599Z,15.01
2023-03-14T08:57:06.419Z,15.08
2023-03-14T08:59:40.238Z,15.11
2023-03-14T09:02:14.963Z,15.05
2023-03-14T09:04:48.032Z,14.96
2023-03-14T09:07:21.035Z,14.87
2023-03-14T09:09:56.353Z,14.79
2023-03-14T09:12:30.305Z,14.71
2023-03-14T09:15:03.244Z,14.65
2023-03-14T09:17:36.415Z,14.61
2023-03-14T09:20:15.469Z,14.62
2023-03-14T09:22:50.579Z,14.67
2023-03-14T09:25:23.251Z,14.74
2023-03-14T09:27:56.200Z,14.85
2023-03-14T09:30:29.222Z,15.00
2023-03-14T09:33:02.190Z,15.18
2023-03-14T09:35:37.308Z,15.38
2023-03-14T09:38:13.306Z,15.52
2023-03-14T09:40:46.354Z,15.61
2023-03-14T09:43:19.694Z,15.67
2023-03-14T09:45:53.432Z,15.65
2023-03-14T09:48:29.632Z,15.62
2023-03-14T09:51:07.287Z,15.51
2023-03-14T09:53:42.748Z,15.40
2023-03-14T09:56:20.007Z,15.22
2023-03-14T09:58:57.702Z,14.98
2023-03-14T10:01:33.245Z,14.76
2023-03-14T10:04:13.266Z,14.56
2023-03-14T10:06:46.501Z,14.60
2023-03-14T10:09:26.187Z,14.63
2023-03-14T10:12:08.767Z,14.82
2023-03-14T10:14:50.172Z,15.03
2023-03-14T10:17:26.232Z,15.21
2023-03-14T10:20:01.190Z,15.38
2023-03-14T10:22:35.187Z,15.48
2023-03-14T10:25:29.764Z,15.66
2023-03-14T10:28:03.019Z,15.84
2023-03-14T10:30:46.141Z,15.99
2023-03-14T10:33:26.907Z,16.19
2023-03-14T10:36:02.366Z,16.36
2023-03-14T10:38:37.056Z,16.50
2023-03-14T10:41:21.466Z,16.48
2023-03-14T10:43:57.189Z,16.31
2023-03-14T10:46:33.440Z,16.13
2023-03-14T10:49:31.573Z,16.06
2023-03-14T10:52:20.752Z,16.01
2023-03-14T10:54:59.517Z,15.95
2023-03-14T10:57:32.264Z,15.89
2023-03-14T11:00:21.479Z,15.84
2023-03-14T11:03:11.444Z,15.81
2023-03-14T11:05:50.554Z,15.78
2023-03-14T11:08:35.117Z,15.74
2023-03-14T11:11:15.944Z,15.73
2023-03-14T11:13:58.260Z,15.70
2023-03-14T11:16:37.695Z,15.70
2023-03-14T11:19:36.704Z,15.71
2023-03-14T11:22:24.364Z,15.75
2023-03-14T11:25:33.349Z,15.75
2023-03-14T11:28:19.393Z,15.81
2023-03-14T11:30:55.838Z,15.96
2023-03-14T11:33:37.636Z,16.12
2023-03-14T11:36:13.577Z,16.30
2023-03-14T11:39:00.537Z,16.42
2023-03-14T11:41:40.019Z,16.50
2023-03-14T11:44:21.106Z,16.63
2023-03-14T11:47:00.620Z,16.76
2023-03-14T11:49:41.255Z,16.83
2023-03-14T11:52:30.909Z,16.88
2023-03-14T11:55:15.261Z,16.99
2023-03-14T11:57:52.177Z,17.07
2023-03-14T12:00:29.281Z,17.01
2023-03-14T12:03:12.046Z,16.98
2023-03-14T12:05:53.201Z,17.09
2023-03-14T12:08:47.496Z,17.21
2023-03-14T12:11:29.966Z,17.27
2023-03-14T12:14:03.271Z,17.32
2023-03-14T12:16:41.666Z,17.37
2023-03-14T12:19:34.838Z,17.47
2023-03-14T12:22:22.352Z,17.47
2023-03-14T12:24:59.934Z,17.37
2023-03-14T12:28:08.564Z,17.20
2023-03-14T12:30:43.171Z,17.08
2023-03-14T12:33:34.834Z,17.10
2023-03-14T12:36:50.925Z,17.13
2023-03-14T12:39:35.748Z,17.21
2023-03-14T12:42:12.923Z,17.20
2023-03-14T12:44:55.312Z,17.15
2023-03-14T12:47:53.289Z,17.18
2023-03-14T12:50:42.559Z,17.15
2023-03-14T12:53:53.769Z,16.99
2023-03-14T12:56:31.801Z,16.94
2023-03-14T12:59:30.846Z,16.92
2023-03-14T13:02:30.899Z,16.93
2023-03-14T13:05:12.680Z,16.90
2023-03-14T13:08:12.055Z,16.74
2023-03-14T13:10:50.251Z,16.59
2023-03-14T13:13:26.904Z,16.49
2023-03-14T13:16:05.820Z,16.39
2023-03-14T13:18:44.626Z,16.28
2023-03-14T13:21:21.187Z,16.19
2023-03-14T13:24:02.619Z,16.19
2023-03-14T13:26:43.426Z,16.24
2023-03-14T13:29:22.986Z,16.33
2023-03-14T13:31:58.540Z,16.34
2023-03-14T13:34:33.400Z,16.31
2023-03-14T13:37:07.863Z,16.21
2023-03-14T13:39:45.342Z,16.14
2023-03-14T13:42:19.824Z,16.07
2023-03-14T13:44:53.967Z,16.02
2023-03-14T13:47:29.226Z,15.91
2023-03-14T13:50:05.474Z,15.75
2023-03-14T13:52:40.790Z,15.67
2023-03-14T13:55:20.417Z,15.63
2023-03-14T13:57:58.896Z,15.57
2023-03-14T14:00:32.555Z,15.51
2023-03-14T14:03:05.488Z,15.54
2023-03-14T14:05:41.378Z,15.65
2023-03-14T14:08:16.617Z,15.79
2023-03-14T14:10:52.213Z,16.03
2023-03-14T14:13:27.319Z,16.28
2023-03-14T14:16:03.243Z,16.40
2023-03-14T14:18:37.718Z,16.34
2023-03-14T14:21:16.806Z,16.16
2023-03-14T14:23:49.845Z,15.93
2023-03-14T14:26:23.387Z,15.77
2023-03-14T14:29:05.582Z,15.64
2023-03-14T14:31:40.298Z,15.49
2023-03-14T14:34:27.175Z,15.37
2023-03-14T14:37:00.205Z,15.26
2023-03-14T14:39:34.363Z,15.19
2023-03-14T14:42:15.870Z,15.12
2023-03-14T14:44:50.808Z,15.03
2023-03-14T14:47:25.942Z,14.99
2023-03-14T14:50:05.988Z,14.96
2023-03-14T14:53:01.050Z,14.83
2023-03-14T14:55:46.183Z,14.68
2023-03-14T14:58:32.530Z,14.53
2023-03-14T15:01:27.888Z,14.35
2023-03-14T15:04:20.999Z,14.24
2023-03-14T15:07:14.044Z,14.14
2023-03-14T15:10:11.879Z,14.02
2023-03-14T15:13:03.821Z,13.92
2023-03-14T15:15:59.128Z,13.84
2023-03-14T15:18:41.401Z,13.77
2023-03-14T15:21:45.543Z,13.69
2023-03-14T15:24:38.521Z,13.62
2023-03-14T15:27:35.496Z,13.57
2023-03-14T15:30:27.351Z,13.48
2023-03-14T15:33:20.780Z,13.38
2023-03-14T15:36:26.189Z,13.28
2023-03-14T15:39:18.123Z,13.16
2023-03-14T15:42:00.408Z,13.08
2023-03-14T15:44:53.573Z,12.99
2023-03-14T15:47:40.516Z,12.90
2023-03-14T15:50:34.092Z,12.82
2023-03-14T15:53:20.606Z,12.75
2023-03-14T15:56:18.721Z,12.71
2023-03-14T15:59:11.806Z,12.67
2023-03-14T16:01:54.887Z,12.64
2023-03-14T16:04:48.298Z,12.59
2023-03-14T16:07:42.217Z,12.52
2023-03-14T16:10:35.754Z,12.45
2023-03-14T16:13:23.574Z,12.38
2023-03-14T16:16:17.087Z,12.34
2023-03-14T16:19:11.868Z,12.30
2023-03-14T16:22:04.386Z,12.26
2023-03-14T16:24:57.541Z,12.20
2023-03-14T16:27:33.055Z,12.16
2023-03-14T16:30:29.801Z,12.12
2023-03-14T16:33:25.174Z,12.07
2023-03-14T16:36:18.357Z,12.04
2023-03-14T16:39:11.842Z,12.02
2023-03-14T16:42:04.802Z,11.99
2023-03-14T16:44:57.711Z,11.97
2023-03-14T16:47:50.741Z,11.95
2023-03-14T16:50:45.051Z,11.92
2023-03-14T16:53:37.590Z,11.91
2023-03-14T16:56:32.407Z,11.89
2023-03-14T16:59:25.836Z,11.88
2023-03-14T17:02:10.284Z,11.87
2023-03-14T17:05:03.202Z,11.86
2023-03-14T17:07:57.492Z,11.85
2023-03-14T17:10:49.595Z,11.83
2023-03-14T17:13:34.857Z,11.83
2023-03-14T17:16:28.031Z,11.82
2023-03-14T17:19:17.506Z,11.81
2023-03-14T17:22:23.281Z,11.80
2023-03-14T17:25:17.842Z,11.79
2023-03-14T17:28:10.815Z,11.79
2023-03-14T17:31:11.912Z,11.79
2023-03-14T17:33:52.027Z,11.79
2023-03-14T17:36:45.378Z,11.78
2023-03-14T17:39:39.512Z,11.78
2023-03-14T17:42:25.604Z,11.78
2023-03-14T17:45:20.093Z,11.77
2023-03-14T17:48:13.969Z,11.76
2023-03-14T17:51:01.994Z,11.77
2023-03-14T17:53:35.419Z,11.77
2023-03-14T17:56:29.071Z,11.76
2023-03-14T17:59:13.851Z,11.76
2023-03-14T18:02:07.523Z,11.74
2023-03-14T18:05:01.811Z,11.74
2023-03-14T18:07:55.208Z,11.74
2023-03-14T18:10:50.429Z,11.72
2023-03-14T18:13:23.809Z,11.69
2023-03-14T18:16:17.128Z,11.65
2023-03-14T18:19:09.746Z,11.57
2023-03-14T18:22:02.870Z,11.47
2023-03-14T18:24:49.014Z,11.36
2023-03-14T18:27:32.287Z,11.24
2023-03-14T18:30:20.364Z,11.13
2023-03-14T18:33:05.619Z,11.02
2023-03-14T18:35:58.767Z,10.86
2023-03-14T18:38:58.850Z,10.70
2023-03-14T18:41:52.153Z,10.53
2023-03-14T18:44:45.403Z,10.35
2023-03-14T18:47:38.838Z,10.19
2023-03-14T18:50:32.011Z,10.03
2023-03-14T18:53:32.118Z,9.89
2023-03-14T18:56:25.981Z,9.79
2023-03-14T18:59:19.528Z,9.68
2023-03-14T19:02:13.119Z,9.57
2023-03-14T19:05:06.446Z,9.42
2023-03-14T19:07:48.984Z,9.32
2023-03-14T19:10:33.503Z,9.27
2023-03-14T19:13:09.188Z,9.24
2023-03-14T19:16:05.120Z,9.24
2023-03-14T19:18:52.218Z,9.28
2023-03-14T19:21:45.262Z,9.33
2023-03-14T19:24:38.408Z,9.41
2023-03-14T19:27:31.165Z,9.48
2023-03-14T19:30:24.114Z,9.60
2023-03-14T19:33:18.316Z,9.70
2023-03-14T19:36:21.391Z,9.76
2023-03-14T19:39:16.617Z,9.77
2023-03-14T19:42:02.246Z,9.74
2023-03-14T19:44:56.636Z,9.73
2023-03-14T19:47:50.882Z,9.71
2023-03-14T19:50:44.232Z,9.65
2023-03-14T19:53:36.981Z,9.61
2023-03-14T19:56:30.160Z,9.58
2023-03-14T19:59:22.953Z,9.54
2023-03-14T20:02:19.935Z,9.49
2023-03-14T20:05:14.563Z,9.42
2023-03-14T20:08:09.601Z,9.36
2023-03-14T20:11:04.879Z,9.29
2023-03-14T20:13:58.255Z,9.22
2023-03-14T20:16:51.026Z,9.15
2023-03-14T20:19:44.856Z,9.07
2023-03-14T20:22:38.563Z,8.98
2023-03-14T20:25:33.372Z,8.89
2023-03-14T20:28:26.622Z,8.79
2023-03-14T20:31:22.786Z,8.73
2023-03-14T20:34:15.849Z,8.69
2023-03-14T20:36:49.210Z,8.65
2023-03-14T20:39:40.677Z,8.67
2023-03-14T20:42:13.407Z,8.72
2023-03-14T20:44:48.883Z,8.79
2023-03-14T20:47:35.155Z,8.86
2023-03-14T20:50:21.623Z,8.91
2023-03-14T20:53:15.808Z,8.95
2023-03-14T20:56:10.394Z,8.99
2023-03-14T20:58:46.784Z,9.01
2023-03-14T21:04:25.307Z,9.01
2023-03-14T21:06:58.349Z,9.03
2023-03-14T21:09:32.795Z,9.03
2023-03-14T21:12:09.006Z,8.99
2023-03-14T21:14:41.839Z,8.96
2023-03-14T21:17:33.759Z,8.95
2023-03-14T21:20:14.112Z,8.94
2023-03-14T21:22:47.186Z,8.95
2023-03-14T21:25:23.274Z,8.97
2023-03-14T21:27:55.905Z,8.97
2023-03-14T21:30:30.077Z,8.96
2023-03-14T21:33:05.993Z,8.96
2023-03-14T21:35:38.703Z,8.97
2023-03-14T21:38:14.496Z,9.02
2023-03-14T21:40:50.186Z,9.07
2023-03-14T21:43:23.604Z,9.13
2023-03-14T21:45:58.530Z,9.18
2023-03-14T21:48:31.359Z,9.23
2023-03-14T21:51:16.960Z,9.29
2023-03-14T21:53:54.793Z,9.34
2023-03-14T21:56:27.734Z,9.39
2023-03-14T21:59:24.108Z,9.39
2023-03-14T22:01:59.405Z,9.37
2023-03-14T22:04:35.805Z,9.36
2023-03-14T22:07:20.899Z,9.37
2023-03-14T22:09:54.963Z,9.37
2023-03-14T22:12:27.659Z,9.37
2023-03-14T22:15:00.592Z,9.36
2023-03-14T22:17:37.006Z,9.35
2023-03-14T22:20:14.056Z,9.34
2023-03-14T22:22:47.291Z,9.33
2023-03-14T22:25:23.088Z,9.34
2023-03-14T22:27:55.715Z,9.34
2023-03-14T22:30:28.669Z,9.34
2023-03-14T22:33:05.982Z,9.35
2023-03-14T22:35:42.283Z,9.38
2023-03-14T22:38:25.237Z,9.42
2023-03-14T22:41:03.425Z,9.45
2023-03-14T22:43:39.186Z,9.49
2023-03-14T22:46:13.537Z,9.53
2023-03-14T22:48:47.354Z,9.57
2023-03-14T22:51:20.163Z,9.60
2023-03-14T22:53:53.526Z,9.59
2023-03-14T22:56:26.166Z,9.56
2023-03-14T22:59:07.834Z,9.53
2023-03-14T23:01:49.883Z,9.51
2023-03-14T23:04:26.250Z,9.51
2023-03-14T23:07:12.785Z,9.50
2023-03-14T23:10:02.720Z,9.49
2023-03-14T23:12:38.907Z,9.47
2023-03-14T23:15:22.428Z,9.45
2023-03-14T23:17:58.340Z,9.42
2023-03-14T23:20:43.285Z,9.38
2023-03-14T23:23:36.210Z,9.35
2023-03-14T23:26:30.814Z,9.34
2023-03-14T23:29:08.247Z,9.35
2023-03-14T23:31:45.565Z,9.39
2023-03-14T23:34:30.124Z,9.45
2023-03-14T23:37:02.746Z,9.51
2023-03-14T23:39:50.299Z,9.56
2023-03-14T23:42:26.274Z,9.57
2023-03-14T23:45:19.587Z,9.57
2023-03-14T23:48:13.520Z,9.52
2023-03-14T23:50:49.350Z,9.48
2023-03-14T23:53:22.065Z,9.45
2023-03-14T23:56:05.900Z,9.42
2023-03-14T23:58:42.404Z,9.38
